Latest Coastal Weather Observations for Geelong Racecourse

IDV60701

Issued at 5:51 pm EST Friday 4 September 2015 (issued every 10 minutes, with the page automatically refreshed every 10 minutes)

About coastal observations | Map of coastal stations | Coastal observations for VIC | Marine services | Other Formats
Station Details ID: 087184 Name: GEELONG RACECOURSE Lat: -38.17 Lon: 144.38 Height: 12.9 m
Data from the previous 72 hours. | See also: Recent months at Geelong Racecourse
Date/Time
EST
Temp

°C
Wind Pressure Rain
since 9am
mm
Weather Cloud Vis
km
Sea
Height
m
Swell
Dir
 
Speed
knots
Gust
knots
hPa Trend Height
m
Period
s
Dir
04/05:30pm 11.7 S 5 7 1024.5 - 0.0 - - - - - - -
04/05:00pm 11.8 S 5 6 1024.3 - 0.0 - - - - - - -
04/04:30pm 11.8 S 6 8 1024.0 - 0.0 - - - - - - -
04/04:00pm 12.0 S 6 9 1024.0 - 0.0 - - - - - - -
04/03:30pm 12.2 S 5 7 1024.0 - 0.0 - - - - - - -
04/03:00pm 12.6 S 5 7 1023.9 - 0.0 - - - - - - -
04/02:30pm 12.7 W 5 8 1024.0 - 0.0 - - - - - - -
04/02:00pm 13.1 WSW 6 9 1024.1 - 0.0 - - - - - - -
04/01:30pm 12.7 WSW 8 12 1024.4 - 0.0 - - - - - - -
04/01:00pm 12.6 WSW 7 9 1024.8 - 0.0 - - - - - - -
04/12:30pm 12.5 WSW 7 11 1025.1 - 0.0 - - - - - - -
04/12:00pm 12.7 WSW 5 7 1025.5 - 0.0 - - - - - - -
04/11:30am 11.9 WSW 9 12 1025.8 - 0.0 - - - - - - -
04/11:00am 12.1 SW 5 7 1025.9 - 0.0 - - - - - - -
04/10:30am 11.5 WSW 6 8 1026.1 - 0.0 - - - - - - -
04/10:00am 11.1 WSW 6 8 1026.1 - 0.0 - - - - - - -
04/09:30am 10.9 SW 7 9 1026.0 - 0.0 - - - - - - -
04/09:00am 10.8 WNW 4 5 1026.0 - - - - - - - - -
04/08:30am 9.5 NW 3 3 1025.9 - - - - - - - - -
04/08:00am 9.0 NW 2 3 1025.6 - - - - - - - - -
04/07:30am 8.1 NW 3 3 1025.4 - - - - - - - - -
04/07:00am 8.0 NW 3 3 1025.1 - - - - - - - - -
04/06:30am 7.8 WNW 3 4 1024.9 - - - - - - - - -
04/06:00am 7.7 NW 3 3 1024.8 - - - - - - - - -
04/05:30am 7.5 WNW 3 4 1024.7 - - - - - - - - -
04/05:00am 7.7 NW 1 2 1024.4 - - - - - - - - -
04/04:30am 8.1 W 1 2 1024.1 - - - - - - - - -
04/04:00am 8.3 W 2 3 1024.1 - - - - - - - - -
04/03:30am 8.5 W 4 5 1024.0 - - - - - - - - -
04/03:00am 8.3 WSW 3 5 1023.9 - 0.0 - - - - - - -
04/02:30am 8.5 WSW 3 6 1024.0 - - - - - - - - -
04/02:00am 8.4 WNW 3 4 1024.2 - - - - - - - - -
04/01:30am 8.5 WNW 3 4 1024.2 - - - - - - - - -
04/01:00am 8.6 WNW 3 4 1024.1 - - - - - - - - -
04/12:30am 8.6 WSW 2 4 1024.1 - - - - - - - - -
04/12:00am 8.4 WSW 3 4 1024.0 - - - - - - - - -
 
Date/Time
EST
Temp

°C
Wind Pressure Rain
since 9am
mm
Weather Cloud Vis
km
Sea
Height
m
Swell
Dir
 
Speed
knots
Gust
knots
hPa Trend Height
m
Period
s
Dir
03/11:30pm 8.1 W 3 4 1023.9 - - - - - - - - -
03/11:00pm 8.1 WNW 2 3 1023.8 - - - - - - - - -
03/10:30pm 8.0 WSW 4 5 1023.6 - - - - - - - - -
03/10:00pm 7.8 W 3 5 1023.4 - - - - - - - - -
03/09:30pm 8.8 WSW 6 9 1023.1 - - - - - - - - -
03/09:00pm 9.3 SW 5 7 1023.0 - - - - - - - - -
03/08:30pm 9.6 SW 7 8 1022.7 - - - - - - - - -
03/08:00pm 10.2 SW 7 10 1022.4 - - - - - - - - -
03/07:30pm 10.5 SW 7 10 1022.1 - - - - - - - - -
03/07:00pm 10.3 SW 6 9 1021.7 - - - - - - - - -
03/06:30pm 10.4 SSW 7 10 1021.2 - - - - - - - - -
03/06:00pm 10.7 SSW 10 14 1020.7 - 0.0 - - - - - - -
03/05:30pm 10.8 SSW 8 12 1020.2 - 0.0 - - - - - - -
03/05:00pm 11.4 S 10 15 1019.7 - 0.0 - - - - - - -
03/04:30pm 11.3 SSW 10 13 1019.2 - 0.0 - - - - - - -
03/04:00pm 10.7 SSW 13 18 1019.1 - 0.0 - - - - - - -
03/03:30pm 12.1 SSW 13 18 1018.5 - 0.0 - - - - - - -
03/03:00pm 12.9 SSW 14 19 1017.9 - 0.0 - - - - - - -
03/02:30pm 13.3 S 15 19 1017.4 - 0.0 - - - - - - -
03/02:00pm 13.7 SSW 14 21 1017.2 - 0.0 - - - - - - -
03/01:30pm 12.3 S 13 18 1017.2 - 0.0 - - - - - - -
03/01:00pm 13.5 SSW 14 20 1017.0 - 0.0 - - - - - - -
03/12:30pm 13.0 SSW 14 19 1016.8 - 0.0 - - - - - - -
03/12:00pm 12.6 S 17 22 1016.6 - 0.0 - - - - - - -
03/11:30am 12.6 S 14 20 1016.2 - 0.0 - - - - - - -
03/11:00am 13.0 SSW 11 14 1015.7 - 0.0 - - - - - - -
03/10:30am 13.4 SSW 11 17 1015.3 - 0.0 - - - - - - -
03/10:00am 12.8 SSW 12 16 1015.0 - 0.0 - - - - - - -
03/09:30am 12.8 SSW 12 16 1014.5 - 0.0 - - - - - - -
03/09:00am 13.1 SSW 11 15 1013.7 - 7.0 - - - - - - -
03/08:30am 12.6 SSW 8 11 1013.0 - - - - - - - - -
03/08:00am 12.5 SSW 11 15 1012.5 - - - - - - - - -
03/07:30am 12.1 SSW 11 16 1011.7 - - - - - - - - -
03/07:00am 11.8 SSW 9 14 1011.0 - - - - - - - - -
03/06:30am 11.8 SSW 8 13 1010.5 - - - - - - - - -
03/06:00am 11.5 SSW 6 8 1010.1 - - - - - - - - -
03/05:30am 11.5 SSW 5 8 1009.7 - - - - - - - - -
03/05:00am 11.6 SSW 6 8 1009.3 - - - - - - - - -
03/04:30am 11.6 SSW 7 10 1008.8 - - - - - - - - -
03/04:00am 11.6 SSW 8 14 1008.5 - - - - - - - - -
03/03:30am 11.7 SSW 9 14 1008.2 - - - - - - - - -
03/03:00am 11.4 SSW 8 12 1008.1 - 0.4 - - - - - - -
03/02:30am 11.1 SSW 6 9 1008.2 - - - - - - - - -
03/02:00am 11.0 SSW 6 8 1008.2 - - - - - - - - -
03/01:30am 10.5 S 5 6 1008.2 - - - - - - - - -
03/01:00am 10.3 S 3 3 1007.9 - - - - - - - - -
03/12:30am 10.4 S 1 3 1007.7 - - - - - - - - -
03/12:00am 10.3 CALM 0 0 1007.6 - - - - - - - - -
 
Date/Time
EST
Temp

°C
Wind Pressure Rain
since 9am
mm
Weather Cloud Vis
km
Sea
Height
m
Swell
Dir
 
Speed
knots
Gust
knots
hPa Trend Height
m
Period
s
Dir
02/11:30pm 10.5 CALM 0 1 1007.9 - - - - - - - - -
02/11:00pm 10.6 SE 2 2 1007.9 - - - - - - - - -
02/10:30pm 10.6 ESE 1 2 1008.0 - - - - - - - - -
02/10:00pm 10.8 ESE 2 3 1008.1 - - - - - - - - -
02/09:30pm 11.0 SE 2 3 1008.3 - - - - - - - - -
02/09:00pm 11.0 ESE 2 3 1008.3 - - Recent precip. - - - - - -
02/08:30pm 11.2 ESE 2 3 1008.4 - - - - - - - - -
02/08:00pm 11.3 SE 2 3 1008.5 - - - - - - - - -
02/07:30pm 11.4 SE 2 3 1008.5 - - - - - - - - -
02/07:00pm 11.5 ENE 1 2 1008.5 - - - - - - - - -
02/06:30pm 11.8 ENE 2 3 1008.4 - - - - - - - - -
02/06:00pm 12.0 E 2 3 1008.1 - - Rain - - - - - -
02/05:30pm 12.4 NE 3 4 1008.0 - - - - - - - - -
02/05:00pm 12.4 W 3 5 1007.6 - - - - - - - - -
02/04:30pm 12.8 SSE 3 4 1007.2 - - - - - - - - -
02/04:00pm 13.4 NE 2 4 1006.8 - - - - - - - - -
02/03:30pm 13.3 NE 4 7 1006.7 - - - - - - - - -
02/03:00pm 14.1 NNE 6 9 1007.2 - 0.2 Recent precip. - - - - - -
02/02:30pm 15.0 NNE 7 13 1007.3 - 0.0 - - - - - - -
02/02:00pm 16.1 NNE 9 13 1007.4 - 0.0 - - - - - - -
02/01:30pm 16.9 NNE 8 14 1008.0 - 0.0 - - - - - - -
02/01:00pm 16.3 NNE 7 13 1008.6 - 0.0 - - - - - - -
02/12:30pm 16.4 NE 10 15 1009.3 - 0.0 - - - - - - -
02/12:00pm 16.1 NNE 9 13 1009.8 - 0.0 - - - - - - -
02/11:30am 16.2 NE 10 19 1010.2 - 0.0 - - - - - - -
02/11:00am 16.0 NE 8 13 1010.7 - 0.0 - - - - - - -
02/10:30am 14.4 NNE 9 14 1010.9 - 0.0 - - - - - - -
02/10:00am 13.7 NE 8 12 1011.2 - 0.0 - - - - - - -
02/09:30am 12.9 NNE 8 11 1011.5 - 0.0 - - - - - - -
02/09:00am 12.7 NE 7 11 1011.7 - 0.0 - - - - - - -
02/08:30am 11.1 NE 7 10 1011.7 - 0.0 - - - - - - -
02/08:00am 10.8 NE 7 10 1011.8 - 0.0 - - - - - - -
02/07:30am 10.4 NE 6 10 1011.6 - 0.0 - - - - - - -
02/07:00am 10.1 NE 7 11 1011.7 - 0.0 - - - - - - -
02/06:30am 10.3 NE 8 11 1011.4 - 0.0 - - - - - - -
02/06:00am 10.6 NE 7 10 1011.7 - 0.0 - - - - - - -
02/05:30am 10.5 NE 8 12 1011.6 - 0.0 - - - - - - -
02/05:00am 10.3 NE 5 9 1011.6 - 0.0 - - - - - - -
02/04:30am 10.2 NE 6 10 1011.7 - 0.0 - - - - - - -
02/04:00am 9.9 NE 6 9 1011.7 - 0.0 - - - - - - -
02/03:30am 9.6 NE 4 7 1011.8 - 0.0 - - - - - - -
02/03:00am 9.3 NE 4 6 1012.1 - 0.0 - - - - - - -
02/02:30am 8.7 NE 4 5 1012.3 - 0.0 - - - - - - -
02/02:00am 8.0 NE 4 7 1012.4 - 0.0 - - - - - - -
02/01:30am 8.0 NNE 3 5 1012.8 - 0.0 - - - - - - -
02/01:00am 7.6 NNE 4 6 1012.8 - 0.0 - - - - - - -
02/12:30am 7.7 NNE 3 5 1013.0 - 0.0 - - - - - - -
02/12:00am 7.5 NE 2 5 1013.1 - 0.0 - - - - - - -
 
Date/Time
EST
Temp

°C
Wind Pressure Rain
since 9am
mm
Weather Cloud Vis
km
Sea
Height
m
Swell
Dir
 
Speed
knots
Gust
knots
hPa Trend Height
m
Period
s
Dir
01/11:30pm 6.6 NNE 3 3 1013.2 - 0.0 - - - - - - -
01/11:00pm 6.4 CALM 0 0 1013.3 - 0.0 - - - - - - -
01/10:30pm 6.6 CALM 0 0 1013.5 - 0.0 - - - - - - -
01/10:00pm 6.5 CALM 0 0 1013.9 - 0.0 - - - - - - -
01/09:30pm 6.8 SE 1 1 1014.0 - 0.0 - - - - - - -
01/09:00pm 6.7 E 1 2 1013.9 - 0.0 - - - - - - -
01/08:30pm 8.2 NNE 2 3 1014.0 - 0.0 - - - - - - -
01/08:00pm 7.9 CALM 0 0 1013.9 - 0.0 - - - - - - -
01/07:30pm 9.3 NNE 2 3 1013.8 - 0.0 - - - - - - -
01/07:00pm 9.3 E 1 3 1013.7 - 0.0 - - - - - - -
01/06:30pm 10.0 CALM 0 0 1013.5 - 0.0 - - - - - - -
01/06:00pm 11.8 NE 2 3 1013.1 - 0.0 - - - - - - -

Other Formats:

Comma delimited format used in spreadsheet applications
http://www.bom.gov.au/fwo/IDV60701/IDV60701.94857.axf

JavaScript Object Notation format (JSON) in row-major order
http://www.bom.gov.au/fwo/IDV60701/IDV60701.94857.json